WEB kamera na Vojskem več informacij WEB-CAM on Vojsko


Kamera v Zali več informacij Kamera v Zali



Prišlo je do težav v komunikacij. Obišči direktno Meteoalarm web-stran: www.meteoalarm.eu and check the Weather-warnings there .

Nearby METAR Reports

   
LJLJ - Idrija
Updated: 17.10.2018 22:30
Rahlo dežuje, Pretežno oblačno  
Rahlo dežuje, Pretežno oblačno  
   Veter: West 5.6 km/h
Veter: West 5.6 km/h
Temperatura: 14°C
Rosišče: 13°C
Vlaga: 94%
Zračni tlak: 1020 hPa
Oblaki: Pretežno oblačno
Visibility: More than 10 km
Cloud details: Nekaj oblakov 3500 ft,
Pretežno oblačno 9000 ft
LJLJ 172030Z 28003KT 9999 -RA FEW035 BKN090 14/13 Q1020 NOSIG
LJPZ - Koper
Updated: 17.10.2018 22:30
Delno oblačno  
Delno oblačno  
   Veter: ESE 9.3 km/h
Veter: ESE 9.3 km/h
Temperatura: 16°C
Rosišče: 15°C
Vlaga: 94%
Zračni tlak: 1017 hPa
Oblaki: Delno oblačno
Visibility: More than 10 km
Cloud details: Delno oblačno
LJPZ 172030Z AUTO 12005KT 9999 NSC 16/15 Q1017
LJLJ - Kranj
Updated: 17.10.2018 22:30
Rahlo dežuje, Pretežno oblačno  
Rahlo dežuje, Pretežno oblačno  
   Veter: West 5.6 km/h
Veter: West 5.6 km/h
Temperatura: 14°C
Rosišče: 13°C
Vlaga: 94%
Zračni tlak: 1020 hPa
Oblaki: Pretežno oblačno
Visibility: More than 10 km
Cloud details: Nekaj oblakov 3500 ft,
Pretežno oblačno 9000 ft
LJLJ 172030Z 28003KT 9999 -RA FEW035 BKN090 14/13 Q1020 NOSIG

Script developed by  Saratoga-weather.org Adapted for the template by  Weerstation Leuven